sensor_id;sensor_type;location;lat;lon;timestamp;P1;durP1;ratioP1;P2;durP2;ratioP2
12048;SDS011;6085;49.452;8.502;2023-03-11T00:00:30;1.33;;;0.70;;
12048;SDS011;6085;49.452;8.502;2023-03-11T00:04:33;0.70;;;0.70;;
12048;SDS011;6085;49.452;8.502;2023-03-11T00:08:35;0.60;;;0.57;;
12048;SDS011;6085;49.452;8.502;2023-03-11T00:12:38;0.50;;;0.50;;
12048;SDS011;6085;49.452;8.502;2023-03-11T00:16:41;0.80;;;0.55;;
12048;SDS011;6085;49.452;8.502;2023-03-11T00:20:44;1.17;;;0.70;;
12048;SDS011;6085;49.452;8.502;2023-03-11T00:24:47;1.33;;;0.80;;
12048;SDS011;6085;49.452;8.502;2023-03-11T00:28:50;0.98;;;0.70;;
12048;SDS011;6085;49.452;8.502;2023-03-11T00:32:55;1.83;;;0.65;;
12048;SDS011;6085;49.452;8.502;2023-03-11T00:36:58;1.50;;;0.77;;
12048;SDS011;6085;49.452;8.502;2023-03-11T00:41:00;2.63;;;0.70;;
12048;SDS011;6085;49.452;8.502;2023-03-11T00:45:04;1.90;;;0.80;;
12048;SDS011;6085;49.452;8.502;2023-03-11T00:49:07;0.98;;;0.82;;
12048;SDS011;6085;49.452;8.502;2023-03-11T00:53:09;1.38;;;1.02;;
12048;SDS011;6085;49.452;8.502;2023-03-11T00:57:11;1.48;;;0.77;;
12048;SDS011;6085;49.452;8.502;2023-03-11T01:01:15;1.75;;;0.85;;
12048;SDS011;6085;49.452;8.502;2023-03-11T01:05:18;0.90;;;0.70;;
12048;SDS011;6085;49.452;8.502;2023-03-11T01:09:21;0.98;;;0.80;;
12048;SDS011;6085;49.452;8.502;2023-03-11T01:13:23;3.33;;;0.93;;
12048;SDS011;6085;49.452;8.502;2023-03-11T01:17:27;1.88;;;1.05;;
12048;SDS011;6085;49.452;8.502;2023-03-11T01:21:29;0.90;;;0.70;;
12048;SDS011;6085;49.452;8.502;2023-03-11T01:25:34;0.85;;;0.60;;
12048;SDS011;6085;49.452;8.502;2023-03-11T01:29:36;1.65;;;0.88;;
12048;SDS011;6085;49.452;8.502;2023-03-11T01:33:39;2.13;;;0.93;;
12048;SDS011;6085;49.452;8.502;2023-03-11T01:37:42;3.63;;;1.58;;
12048;SDS011;6085;49.452;8.502;2023-03-11T01:41:45;2.67;;;0.90;;
12048;SDS011;6085;49.452;8.502;2023-03-11T01:50:11;2.72;;;1.00;;
12048;SDS011;6085;49.452;8.502;2023-03-11T01:54:14;1.77;;;1.08;;
12048;SDS011;6085;49.452;8.502;2023-03-11T01:58:22;2.35;;;1.40;;
12048;SDS011;6085;49.452;8.502;2023-03-11T02:02:27;1.55;;;1.15;;
12048;SDS011;6085;49.452;8.502;2023-03-11T02:06:33;3.58;;;1.25;;
12048;SDS011;6085;49.452;8.502;2023-03-11T02:10:36;2.85;;;1.15;;
12048;SDS011;6085;49.452;8.502;2023-03-11T02:14:41;4.93;;;1.20;;
12048;SDS011;6085;49.452;8.502;2023-03-11T02:18:45;2.15;;;1.00;;
12048;SDS011;6085;49.452;8.502;2023-03-11T02:22:49;2.63;;;0.80;;
12048;SDS011;6085;49.452;8.502;2023-03-11T02:26:57;3.58;;;1.15;;
12048;SDS011;6085;49.452;8.502;2023-03-11T02:31:01;2.22;;;0.85;;
12048;SDS011;6085;49.452;8.502;2023-03-11T02:35:04;2.28;;;1.48;;
12048;SDS011;6085;49.452;8.502;2023-03-11T02:39:07;2.92;;;1.20;;
12048;SDS011;6085;49.452;8.502;2023-03-11T02:43:12;3.15;;;1.17;;
12048;SDS011;6085;49.452;8.502;2023-03-11T02:47:16;1.35;;;0.98;;
12048;SDS011;6085;49.452;8.502;2023-03-11T02:51:18;3.45;;;1.33;;
12048;SDS011;6085;49.452;8.502;2023-03-11T02:55:19;4.00;;;1.08;;
12048;SDS011;6085;49.452;8.502;2023-03-11T02:59:23;1.10;;;0.73;;
12048;SDS011;6085;49.452;8.502;2023-03-11T03:03:25;1.50;;;0.85;;
12048;SDS011;6085;49.452;8.502;2023-03-11T03:07:27;2.58;;;1.08;;
12048;SDS011;6085;49.452;8.502;2023-03-11T03:11:29;2.58;;;1.00;;
12048;SDS011;6085;49.452;8.502;2023-03-11T03:15:32;1.95;;;1.20;;
12048;SDS011;6085;49.452;8.502;2023-03-11T03:19:34;2.97;;;1.00;;
12048;SDS011;6085;49.452;8.502;2023-03-11T03:23:36;3.42;;;1.00;;
12048;SDS011;6085;49.452;8.502;2023-03-11T03:27:38;2.75;;;1.08;;
12048;SDS011;6085;49.452;8.502;2023-03-11T03:31:41;1.52;;;1.00;;
12048;SDS011;6085;49.452;8.502;2023-03-11T03:35:44;1.85;;;0.90;;
12048;SDS011;6085;49.452;8.502;2023-03-11T03:39:46;1.42;;;0.77;;
12048;SDS011;6085;49.452;8.502;2023-03-11T03:43:48;6.43;;;1.20;;
12048;SDS011;6085;49.452;8.502;2023-03-11T03:47:51;2.95;;;0.93;;
12048;SDS011;6085;49.452;8.502;2023-03-11T03:51:53;3.45;;;1.25;;
12048;SDS011;6085;49.452;8.502;2023-03-11T03:55:55;3.05;;;1.58;;
12048;SDS011;6085;49.452;8.502;2023-03-11T03:59:56;3.35;;;1.30;;
12048;SDS011;6085;49.452;8.502;2023-03-11T04:04:00;1.58;;;0.98;;
12048;SDS011;6085;49.452;8.502;2023-03-11T04:08:02;2.67;;;1.02;;
12048;SDS011;6085;49.452;8.502;2023-03-11T04:12:04;4.22;;;1.35;;
12048;SDS011;6085;49.452;8.502;2023-03-11T04:16:06;5.90;;;1.23;;
12048;SDS011;6085;49.452;8.502;2023-03-11T04:20:11;2.13;;;1.15;;
12048;SDS011;6085;49.452;8.502;2023-03-11T04:24:13;1.25;;;0.95;;
12048;SDS011;6085;49.452;8.502;2023-03-11T04:28:15;2.63;;;1.10;;
12048;SDS011;6085;49.452;8.502;2023-03-11T04:32:17;1.75;;;0.90;;
12048;SDS011;6085;49.452;8.502;2023-03-11T04:36:20;2.35;;;0.93;;
12048;SDS011;6085;49.452;8.502;2023-03-11T04:40:22;2.30;;;1.30;;
12048;SDS011;6085;49.452;8.502;2023-03-11T04:44:24;2.78;;;1.20;;
12048;SDS011;6085;49.452;8.502;2023-03-11T04:48:26;3.08;;;1.55;;
12048;SDS011;6085;49.452;8.502;2023-03-11T04:52:29;4.03;;;1.38;;
12048;SDS011;6085;49.452;8.502;2023-03-11T04:56:31;3.85;;;1.40;;
12048;SDS011;6085;49.452;8.502;2023-03-11T05:00:33;3.60;;;1.17;;
12048;SDS011;6085;49.452;8.502;2023-03-11T05:04:35;4.03;;;1.00;;
12048;SDS011;6085;49.452;8.502;2023-03-11T05:08:38;3.53;;;1.33;;
12048;SDS011;6085;49.452;8.502;2023-03-11T05:12:41;4.72;;;1.30;;
12048;SDS011;6085;49.452;8.502;2023-03-11T05:16:43;2.88;;;1.10;;
12048;SDS011;6085;49.452;8.502;2023-03-11T05:20:45;3.60;;;1.05;;
12048;SDS011;6085;49.452;8.502;2023-03-11T05:24:49;3.38;;;1.10;;
12048;SDS011;6085;49.452;8.502;2023-03-11T05:28:51;3.10;;;1.67;;
12048;SDS011;6085;49.452;8.502;2023-03-11T05:32:53;1.10;;;1.00;;
12048;SDS011;6085;49.452;8.502;2023-03-11T05:36:55;3.58;;;1.38;;
12048;SDS011;6085;49.452;8.502;2023-03-11T05:40:58;1.77;;;1.02;;
12048;SDS011;6085;49.452;8.502;2023-03-11T05:45:00;1.73;;;1.17;;
12048;SDS011;6085;49.452;8.502;2023-03-11T05:49:02;3.22;;;1.30;;
12048;SDS011;6085;49.452;8.502;2023-03-11T05:53:04;2.78;;;1.10;;
12048;SDS011;6085;49.452;8.502;2023-03-11T05:57:07;2.65;;;1.05;;
12048;SDS011;6085;49.452;8.502;2023-03-11T06:01:10;5.35;;;1.48;;
12048;SDS011;6085;49.452;8.502;2023-03-11T06:05:15;1.50;;;1.25;;
12048;SDS011;6085;49.452;8.502;2023-03-11T06:09:17;6.65;;;1.65;;
12048;SDS011;6085;49.452;8.502;2023-03-11T06:13:21;4.35;;;1.77;;
12048;SDS011;6085;49.452;8.502;2023-03-11T06:17:23;7.75;;;1.48;;
12048;SDS011;6085;49.452;8.502;2023-03-11T06:21:25;4.15;;;1.40;;
12048;SDS011;6085;49.452;8.502;2023-03-11T06:25:27;3.70;;;1.27;;
12048;SDS011;6085;49.452;8.502;2023-03-11T06:29:30;6.60;;;1.50;;
12048;SDS011;6085;49.452;8.502;2023-03-11T06:33:32;3.42;;;1.33;;
12048;SDS011;6085;49.452;8.502;2023-03-11T06:37:35;4.32;;;1.67;;
12048;SDS011;6085;49.452;8.502;2023-03-11T06:41:37;1.70;;;1.38;;
12048;SDS011;6085;49.452;8.502;2023-03-11T06:45:40;3.08;;;1.58;;
12048;SDS011;6085;49.452;8.502;2023-03-11T06:49:42;3.60;;;1.27;;
12048;SDS011;6085;49.452;8.502;2023-03-11T06:53:47;3.00;;;1.30;;
12048;SDS011;6085;49.452;8.502;2023-03-11T06:57:50;2.72;;;1.77;;
12048;SDS011;6085;49.452;8.502;2023-03-11T07:01:54;7.43;;;1.63;;
12048;SDS011;6085;49.452;8.502;2023-03-11T07:05:56;3.20;;;1.40;;
12048;SDS011;6085;49.452;8.502;2023-03-11T07:09:59;2.85;;;1.40;;
12048;SDS011;6085;49.452;8.502;2023-03-11T07:14:02;4.00;;;1.30;;
12048;SDS011;6085;49.452;8.502;2023-03-11T07:18:05;2.80;;;1.30;;
12048;SDS011;6085;49.452;8.502;2023-03-11T07:22:07;3.78;;;1.45;;
12048;SDS011;6085;49.452;8.502;2023-03-11T07:26:09;5.43;;;1.50;;
12048;SDS011;6085;49.452;8.502;2023-03-11T07:30:12;4.43;;;1.48;;
12048;SDS011;6085;49.452;8.502;2023-03-11T07:34:16;5.72;;;1.50;;
12048;SDS011;6085;49.452;8.502;2023-03-11T07:38:18;3.65;;;1.55;;
12048;SDS011;6085;49.452;8.502;2023-03-11T07:42:20;5.47;;;1.20;;
12048;SDS011;6085;49.452;8.502;2023-03-11T07:46:22;2.72;;;1.10;;
12048;SDS011;6085;49.452;8.502;2023-03-11T07:50:26;4.93;;;1.38;;
12048;SDS011;6085;49.452;8.502;2023-03-11T07:54:28;2.30;;;1.45;;
12048;SDS011;6085;49.452;8.502;2023-03-11T07:58:30;7.45;;;1.80;;
12048;SDS011;6085;49.452;8.502;2023-03-11T08:02:32;5.35;;;1.52;;
12048;SDS011;6085;49.452;8.502;2023-03-11T08:06:36;2.65;;;1.20;;
12048;SDS011;6085;49.452;8.502;2023-03-11T08:10:38;3.63;;;1.73;;
12048;SDS011;6085;49.452;8.502;2023-03-11T08:14:40;3.33;;;1.40;;
12048;SDS011;6085;49.452;8.502;2023-03-11T08:18:43;2.65;;;1.40;;
12048;SDS011;6085;49.452;8.502;2023-03-11T08:22:47;4.57;;;1.58;;
12048;SDS011;6085;49.452;8.502;2023-03-11T08:26:49;5.63;;;1.27;;
12048;SDS011;6085;49.452;8.502;2023-03-11T08:30:51;2.42;;;1.13;;
12048;SDS011;6085;49.452;8.502;2023-03-11T08:34:53;3.13;;;1.63;;
12048;SDS011;6085;49.452;8.502;2023-03-11T08:38:56;2.40;;;1.40;;
12048;SDS011;6085;49.452;8.502;2023-03-11T08:42:58;2.38;;;1.10;;
12048;SDS011;6085;49.452;8.502;2023-03-11T08:47:00;3.10;;;1.40;;
12048;SDS011;6085;49.452;8.502;2023-03-11T08:51:07;3.60;;;1.10;;
12048;SDS011;6085;49.452;8.502;2023-03-11T08:55:12;2.55;;;1.27;;
12048;SDS011;6085;49.452;8.502;2023-03-11T08:59:17;3.10;;;1.30;;
12048;SDS011;6085;49.452;8.502;2023-03-11T09:03:19;2.47;;;1.10;;
12048;SDS011;6085;49.452;8.502;2023-03-11T09:07:21;3.63;;;1.23;;
12048;SDS011;6085;49.452;8.502;2023-03-11T09:11:25;2.47;;;1.45;;
12048;SDS011;6085;49.452;8.502;2023-03-11T09:15:27;4.45;;;1.33;;
12048;SDS011;6085;49.452;8.502;2023-03-11T09:19:29;2.13;;;1.00;;
12048;SDS011;6085;49.452;8.502;2023-03-11T09:23:31;1.98;;;1.02;;
12048;SDS011;6085;49.452;8.502;2023-03-11T09:27:34;3.15;;;1.05;;
12048;SDS011;6085;49.452;8.502;2023-03-11T09:31:39;2.88;;;1.10;;
12048;SDS011;6085;49.452;8.502;2023-03-11T09:35:41;2.25;;;0.93;;
12048;SDS011;6085;49.452;8.502;2023-03-11T09:39:44;2.35;;;1.00;;
12048;SDS011;6085;49.452;8.502;2023-03-11T09:43:49;2.40;;;1.02;;
12048;SDS011;6085;49.452;8.502;2023-03-11T09:48:03;3.30;;;1.40;;
12048;SDS011;6085;49.452;8.502;2023-03-11T09:52:18;2.15;;;0.93;;
12048;SDS011;6085;49.452;8.502;2023-03-11T09:56:23;2.65;;;1.10;;
12048;SDS011;6085;49.452;8.502;2023-03-11T10:00:27;2.83;;;0.95;;
12048;SDS011;6085;49.452;8.502;2023-03-11T10:04:30;1.40;;;1.13;;
12048;SDS011;6085;49.452;8.502;2023-03-11T10:08:39;3.20;;;0.90;;
12048;SDS011;6085;49.452;8.502;2023-03-11T10:12:47;1.92;;;1.02;;
12048;SDS011;6085;49.452;8.502;2023-03-11T10:16:58;2.88;;;1.00;;
12048;SDS011;6085;49.452;8.502;2023-03-11T10:21:09;1.73;;;1.13;;
12048;SDS011;6085;49.452;8.502;2023-03-11T10:25:20;2.00;;;1.13;;
12048;SDS011;6085;49.452;8.502;2023-03-11T10:29:26;1.23;;;0.85;;
12048;SDS011;6085;49.452;8.502;2023-03-11T10:33:33;2.03;;;0.80;;
12048;SDS011;6085;49.452;8.502;2023-03-11T10:37:41;3.03;;;1.20;;
12048;SDS011;6085;49.452;8.502;2023-03-11T10:41:49;1.55;;;0.80;;
12048;SDS011;6085;49.452;8.502;2023-03-11T10:45:54;2.20;;;0.85;;
12048;SDS011;6085;49.452;8.502;2023-03-11T10:49:57;3.53;;;1.23;;
12048;SDS011;6085;49.452;8.502;2023-03-11T10:54:00;4.45;;;1.17;;
12048;SDS011;6085;49.452;8.502;2023-03-11T10:58:04;1.50;;;1.00;;
12048;SDS011;6085;49.452;8.502;2023-03-11T11:02:18;3.15;;;1.30;;
12048;SDS011;6085;49.452;8.502;2023-03-11T11:06:27;2.13;;;0.85;;
12048;SDS011;6085;49.452;8.502;2023-03-11T11:10:31;1.77;;;0.88;;
12048;SDS011;6085;49.452;8.502;2023-03-11T11:14:44;1.73;;;0.90;;
12048;SDS011;6085;49.452;8.502;2023-03-11T11:18:48;3.85;;;1.45;;
12048;SDS011;6085;49.452;8.502;2023-03-11T11:22:55;2.78;;;1.27;;
12048;SDS011;6085;49.452;8.502;2023-03-11T11:27:04;2.33;;;1.17;;
12048;SDS011;6085;49.452;8.502;2023-03-11T11:31:19;3.00;;;0.95;;
12048;SDS011;6085;49.452;8.502;2023-03-11T11:35:23;2.28;;;1.00;;
12048;SDS011;6085;49.452;8.502;2023-03-11T11:39:27;1.60;;;0.90;;
12048;SDS011;6085;49.452;8.502;2023-03-11T11:43:44;0.95;;;0.85;;
12048;SDS011;6085;49.452;8.502;2023-03-11T11:47:51;1.55;;;0.98;;
12048;SDS011;6085;49.452;8.502;2023-03-11T11:51:56;1.50;;;0.75;;
12048;SDS011;6085;49.452;8.502;2023-03-11T11:56:04;1.15;;;0.65;;
12048;SDS011;6085;49.452;8.502;2023-03-11T12:00:12;2.50;;;1.10;;
12048;SDS011;6085;49.452;8.502;2023-03-11T12:04:24;2.30;;;1.23;;
12048;SDS011;6085;49.452;8.502;2023-03-11T12:08:50;1.15;;;1.05;;
12048;SDS011;6085;49.452;8.502;2023-03-11T12:17:48;3.42;;;1.08;;
12048;SDS011;6085;49.452;8.502;2023-03-11T12:22:02;1.60;;;1.20;;
12048;SDS011;6085;49.452;8.502;2023-03-11T12:26:22;3.28;;;1.30;;
12048;SDS011;6085;49.452;8.502;2023-03-11T12:30:27;4.43;;;1.10;;
12048;SDS011;6085;49.452;8.502;2023-03-11T12:34:33;1.88;;;1.23;;
12048;SDS011;6085;49.452;8.502;2023-03-11T12:38:40;2.00;;;1.35;;
12048;SDS011;6085;49.452;8.502;2023-03-11T12:42:48;1.60;;;1.50;;
12048;SDS011;6085;49.452;8.502;2023-03-11T12:51:38;2.25;;;1.60;;
12048;SDS011;6085;49.452;8.502;2023-03-11T12:55:45;1.02;;;0.85;;
12048;SDS011;6085;49.452;8.502;2023-03-11T13:00:10;2.15;;;1.50;;
12048;SDS011;6085;49.452;8.502;2023-03-11T13:04:28;1.40;;;1.30;;
12048;SDS011;6085;49.452;8.502;2023-03-11T13:08:35;1.08;;;0.90;;
12048;SDS011;6085;49.452;8.502;2023-03-11T13:12:46;3.10;;;1.30;;
12048;SDS011;6085;49.452;8.502;2023-03-11T13:16:49;2.03;;;0.93;;
12048;SDS011;6085;49.452;8.502;2023-03-11T13:20:55;2.60;;;1.20;;
12048;SDS011;6085;49.452;8.502;2023-03-11T13:24:59;4.85;;;2.10;;
12048;SDS011;6085;49.452;8.502;2023-03-11T13:29:28;1.80;;;1.30;;
12048;SDS011;6085;49.452;8.502;2023-03-11T13:33:47;3.45;;;1.50;;
12048;SDS011;6085;49.452;8.502;2023-03-11T13:37:57;1.33;;;1.20;;
12048;SDS011;6085;49.452;8.502;2023-03-11T13:42:27;2.83;;;1.40;;
12048;SDS011;6085;49.452;8.502;2023-03-11T13:46:33;1.35;;;1.20;;
12048;SDS011;6085;49.452;8.502;2023-03-11T13:50:39;3.10;;;1.42;;
12048;SDS011;6085;49.452;8.502;2023-03-11T13:54:47;2.25;;;1.50;;
12048;SDS011;6085;49.452;8.502;2023-03-11T13:58:54;2.30;;;1.55;;
12048;SDS011;6085;49.452;8.502;2023-03-11T14:03:16;2.22;;;1.00;;
12048;SDS011;6085;49.452;8.502;2023-03-11T14:07:23;1.60;;;0.88;;
12048;SDS011;6085;49.452;8.502;2023-03-11T14:11:28;1.05;;;0.85;;
12048;SDS011;6085;49.452;8.502;2023-03-11T14:15:32;2.30;;;1.70;;
12048;SDS011;6085;49.452;8.502;2023-03-11T14:19:56;2.88;;;1.38;;
12048;SDS011;6085;49.452;8.502;2023-03-11T14:24:05;2.60;;;1.08;;
12048;SDS011;6085;49.452;8.502;2023-03-11T14:28:12;3.15;;;1.52;;
12048;SDS011;6085;49.452;8.502;2023-03-11T14:32:28;1.90;;;1.35;;
12048;SDS011;6085;49.452;8.502;2023-03-11T14:36:41;1.08;;;0.88;;
12048;SDS011;6085;49.452;8.502;2023-03-11T14:40:44;1.50;;;1.10;;
12048;SDS011;6085;49.452;8.502;2023-03-11T14:44:51;2.38;;;1.45;;
12048;SDS011;6085;49.452;8.502;2023-03-11T14:48:58;2.33;;;1.27;;
12048;SDS011;6085;49.452;8.502;2023-03-11T14:53:04;1.80;;;1.10;;
12048;SDS011;6085;49.452;8.502;2023-03-11T14:57:10;1.83;;;1.05;;
12048;SDS011;6085;49.452;8.502;2023-03-11T15:01:20;2.03;;;1.13;;
12048;SDS011;6085;49.452;8.502;2023-03-11T15:05:27;1.83;;;1.08;;
12048;SDS011;6085;49.452;8.502;2023-03-11T15:09:37;1.45;;;1.20;;
12048;SDS011;6085;49.452;8.502;2023-03-11T15:13:41;1.88;;;1.20;;
12048;SDS011;6085;49.452;8.502;2023-03-11T15:17:50;3.65;;;1.33;;
12048;SDS011;6085;49.452;8.502;2023-03-11T15:21:55;1.67;;;1.10;;
12048;SDS011;6085;49.452;8.502;2023-03-11T15:25:58;1.25;;;1.15;;
12048;SDS011;6085;49.452;8.502;2023-03-11T15:30:01;1.70;;;1.25;;
12048;SDS011;6085;49.452;8.502;2023-03-11T15:38:31;1.75;;;1.02;;
12048;SDS011;6085;49.452;8.502;2023-03-11T15:42:33;1.63;;;1.15;;
12048;SDS011;6085;49.452;8.502;2023-03-11T15:46:35;2.03;;;1.10;;
12048;SDS011;6085;49.452;8.502;2023-03-11T15:50:44;1.70;;;1.05;;
12048;SDS011;6085;49.452;8.502;2023-03-11T15:54:49;2.10;;;1.58;;
12048;SDS011;6085;49.452;8.502;2023-03-11T15:58:51;1.77;;;1.23;;
12048;SDS011;6085;49.452;8.502;2023-03-11T16:02:53;1.40;;;1.10;;
12048;SDS011;6085;49.452;8.502;2023-03-11T16:06:55;2.00;;;1.27;;
12048;SDS011;6085;49.452;8.502;2023-03-11T16:10:59;1.65;;;1.25;;
12048;SDS011;6085;49.452;8.502;2023-03-11T16:15:01;4.25;;;1.58;;
12048;SDS011;6085;49.452;8.502;2023-03-11T16:19:03;2.33;;;1.65;;
12048;SDS011;6085;49.452;8.502;2023-03-11T16:23:06;1.58;;;1.40;;
12048;SDS011;6085;49.452;8.502;2023-03-11T16:27:14;1.73;;;1.05;;
12048;SDS011;6085;49.452;8.502;2023-03-11T16:31:17;1.80;;;1.20;;
12048;SDS011;6085;49.452;8.502;2023-03-11T16:35:19;3.53;;;1.65;;
12048;SDS011;6085;49.452;8.502;2023-03-11T16:39:21;2.75;;;1.38;;
12048;SDS011;6085;49.452;8.502;2023-03-11T16:43:24;2.95;;;1.42;;
12048;SDS011;6085;49.452;8.502;2023-03-11T16:47:27;2.80;;;1.10;;
12048;SDS011;6085;49.452;8.502;2023-03-11T16:51:29;1.75;;;1.15;;
12048;SDS011;6085;49.452;8.502;2023-03-11T16:55:31;4.00;;;1.70;;
12048;SDS011;6085;49.452;8.502;2023-03-11T16:59:35;3.80;;;1.35;;
12048;SDS011;6085;49.452;8.502;2023-03-11T17:03:37;1.67;;;1.27;;
12048;SDS011;6085;49.452;8.502;2023-03-11T17:07:39;2.50;;;1.13;;
12048;SDS011;6085;49.452;8.502;2023-03-11T17:11:46;3.25;;;1.48;;
12048;SDS011;6085;49.452;8.502;2023-03-11T17:15:57;1.95;;;1.13;;
12048;SDS011;6085;49.452;8.502;2023-03-11T17:20:01;2.00;;;1.00;;
12048;SDS011;6085;49.452;8.502;2023-03-11T17:24:07;2.65;;;1.50;;
12048;SDS011;6085;49.452;8.502;2023-03-11T17:28:10;3.38;;;1.42;;
12048;SDS011;6085;49.452;8.502;2023-03-11T17:32:14;3.28;;;1.90;;
12048;SDS011;6085;49.452;8.502;2023-03-11T17:36:16;2.35;;;1.50;;
12048;SDS011;6085;49.452;8.502;2023-03-11T17:40:18;2.78;;;1.65;;
12048;SDS011;6085;49.452;8.502;2023-03-11T17:44:21;3.15;;;1.50;;
12048;SDS011;6085;49.452;8.502;2023-03-11T17:48:24;3.67;;;1.70;;
12048;SDS011;6085;49.452;8.502;2023-03-11T17:52:27;1.88;;;1.23;;
12048;SDS011;6085;49.452;8.502;2023-03-11T17:56:29;2.08;;;1.58;;
12048;SDS011;6085;49.452;8.502;2023-03-11T18:00:31;5.50;;;1.40;;
12048;SDS011;6085;49.452;8.502;2023-03-11T18:04:34;2.70;;;1.23;;
12048;SDS011;6085;49.452;8.502;2023-03-11T18:08:37;2.40;;;1.50;;
12048;SDS011;6085;49.452;8.502;2023-03-11T18:12:42;2.92;;;1.58;;
12048;SDS011;6085;49.452;8.502;2023-03-11T18:16:44;4.50;;;1.70;;
12048;SDS011;6085;49.452;8.502;2023-03-11T18:20:49;1.77;;;1.50;;
12048;SDS011;6085;49.452;8.502;2023-03-11T18:24:51;3.60;;;1.70;;
12048;SDS011;6085;49.452;8.502;2023-03-11T18:28:53;2.90;;;1.40;;
12048;SDS011;6085;49.452;8.502;2023-03-11T18:32:56;3.53;;;2.83;;
12048;SDS011;6085;49.452;8.502;2023-03-11T18:36:59;3.95;;;1.88;;
12048;SDS011;6085;49.452;8.502;2023-03-11T18:41:01;2.38;;;1.70;;
12048;SDS011;6085;49.452;8.502;2023-03-11T18:45:04;3.33;;;1.60;;
12048;SDS011;6085;49.452;8.502;2023-03-11T18:49:06;3.55;;;1.90;;
12048;SDS011;6085;49.452;8.502;2023-03-11T18:53:13;3.75;;;1.85;;
12048;SDS011;6085;49.452;8.502;2023-03-11T18:57:15;4.35;;;1.85;;
12048;SDS011;6085;49.452;8.502;2023-03-11T19:01:17;3.80;;;1.98;;
12048;SDS011;6085;49.452;8.502;2023-03-11T19:05:21;2.85;;;1.50;;
12048;SDS011;6085;49.452;8.502;2023-03-11T19:09:24;4.60;;;1.90;;
12048;SDS011;6085;49.452;8.502;2023-03-11T19:13:26;2.20;;;1.70;;
12048;SDS011;6085;49.452;8.502;2023-03-11T19:17:28;2.42;;;1.70;;
12048;SDS011;6085;49.452;8.502;2023-03-11T19:21:30;2.08;;;1.60;;
12048;SDS011;6085;49.452;8.502;2023-03-11T19:25:33;2.13;;;1.77;;
12048;SDS011;6085;49.452;8.502;2023-03-11T19:29:36;2.28;;;2.08;;
12048;SDS011;6085;49.452;8.502;2023-03-11T19:33:38;2.30;;;2.10;;
12048;SDS011;6085;49.452;8.502;2023-03-11T19:37:40;3.50;;;2.40;;
12048;SDS011;6085;49.452;8.502;2023-03-11T19:41:43;5.35;;;3.65;;
12048;SDS011;6085;49.452;8.502;2023-03-11T19:45:46;4.07;;;3.08;;
12048;SDS011;6085;49.452;8.502;2023-03-11T19:49:49;3.45;;;2.72;;
12048;SDS011;6085;49.452;8.502;2023-03-11T19:53:51;2.65;;;2.25;;
12048;SDS011;6085;49.452;8.502;2023-03-11T19:57:55;4.28;;;3.20;;
12048;SDS011;6085;49.452;8.502;2023-03-11T20:01:57;5.85;;;3.63;;
12048;SDS011;6085;49.452;8.502;2023-03-11T20:06:02;3.15;;;2.78;;
12048;SDS011;6085;49.452;8.502;2023-03-11T20:10:05;3.78;;;2.90;;
12048;SDS011;6085;49.452;8.502;2023-03-11T20:14:09;3.53;;;2.60;;
12048;SDS011;6085;49.452;8.502;2023-03-11T20:18:11;3.33;;;2.70;;
12048;SDS011;6085;49.452;8.502;2023-03-11T20:22:14;3.15;;;2.65;;
12048;SDS011;6085;49.452;8.502;2023-03-11T20:26:17;3.20;;;2.88;;
12048;SDS011;6085;49.452;8.502;2023-03-11T20:30:20;8.55;;;4.13;;
12048;SDS011;6085;49.452;8.502;2023-03-11T20:34:23;6.53;;;3.88;;
12048;SDS011;6085;49.452;8.502;2023-03-11T20:38:25;7.13;;;3.90;;
12048;SDS011;6085;49.452;8.502;2023-03-11T20:42:28;7.25;;;3.92;;
12048;SDS011;6085;49.452;8.502;2023-03-11T20:46:36;4.53;;;4.07;;
12048;SDS011;6085;49.452;8.502;2023-03-11T20:50:38;6.43;;;4.78;;
12048;SDS011;6085;49.452;8.502;2023-03-11T20:54:40;5.45;;;4.13;;
12048;SDS011;6085;49.452;8.502;2023-03-11T20:58:42;5.30;;;4.15;;
12048;SDS011;6085;49.452;8.502;2023-03-11T21:02:46;6.78;;;4.43;;
12048;SDS011;6085;49.452;8.502;2023-03-11T21:06:48;4.75;;;3.88;;
12048;SDS011;6085;49.452;8.502;2023-03-11T21:10:57;6.88;;;4.90;;
12048;SDS011;6085;49.452;8.502;2023-03-11T21:15:00;9.05;;;5.55;;
12048;SDS011;6085;49.452;8.502;2023-03-11T21:19:03;7.47;;;5.30;;
12048;SDS011;6085;49.452;8.502;2023-03-11T21:23:07;5.75;;;5.10;;
12048;SDS011;6085;49.452;8.502;2023-03-11T21:27:09;6.18;;;5.00;;
12048;SDS011;6085;49.452;8.502;2023-03-11T21:31:13;9.32;;;6.63;;
12048;SDS011;6085;49.452;8.502;2023-03-11T21:35:17;8.27;;;6.22;;
12048;SDS011;6085;49.452;8.502;2023-03-11T21:39:19;8.82;;;6.25;;
12048;SDS011;6085;49.452;8.502;2023-03-11T21:43:21;9.73;;;6.82;;
12048;SDS011;6085;49.452;8.502;2023-03-11T21:47:23;7.13;;;5.55;;
12048;SDS011;6085;49.452;8.502;2023-03-11T21:51:27;9.80;;;6.60;;
12048;SDS011;6085;49.452;8.502;2023-03-11T21:55:29;24.80;;;14.55;;
12048;SDS011;6085;49.452;8.502;2023-03-11T21:59:31;17.98;;;10.40;;
12048;SDS011;6085;49.452;8.502;2023-03-11T22:03:33;13.00;;;7.95;;
12048;SDS011;6085;49.452;8.502;2023-03-11T22:07:37;11.02;;;7.10;;
12048;SDS011;6085;49.452;8.502;2023-03-11T22:11:39;12.10;;;7.20;;
12048;SDS011;6085;49.452;8.502;2023-03-11T22:15:41;12.48;;;7.45;;
12048;SDS011;6085;49.452;8.502;2023-03-11T22:19:43;14.93;;;7.13;;
12048;SDS011;6085;49.452;8.502;2023-03-11T22:23:46;10.18;;;6.60;;
12048;SDS011;6085;49.452;8.502;2023-03-11T22:27:48;11.18;;;7.60;;
12048;SDS011;6085;49.452;8.502;2023-03-11T22:31:51;10.65;;;7.03;;
12048;SDS011;6085;49.452;8.502;2023-03-11T22:35:53;11.40;;;6.30;;
12048;SDS011;6085;49.452;8.502;2023-03-11T22:39:59;8.57;;;6.72;;
12048;SDS011;6085;49.452;8.502;2023-03-11T22:44:06;9.98;;;6.90;;
12048;SDS011;6085;49.452;8.502;2023-03-11T22:48:08;9.48;;;6.78;;
12048;SDS011;6085;49.452;8.502;2023-03-11T22:52:10;10.02;;;7.40;;
12048;SDS011;6085;49.452;8.502;2023-03-11T22:56:14;11.38;;;7.43;;
12048;SDS011;6085;49.452;8.502;2023-03-11T23:00:18;7.30;;;6.50;;
12048;SDS011;6085;49.452;8.502;2023-03-11T23:04:21;9.60;;;7.28;;
12048;SDS011;6085;49.452;8.502;2023-03-11T23:08:23;10.07;;;7.10;;
12048;SDS011;6085;49.452;8.502;2023-03-11T23:12:26;11.15;;;7.00;;
12048;SDS011;6085;49.452;8.502;2023-03-11T23:16:28;8.18;;;6.70;;
12048;SDS011;6085;49.452;8.502;2023-03-11T23:20:32;9.52;;;7.20;;
12048;SDS011;6085;49.452;8.502;2023-03-11T23:24:35;9.13;;;6.93;;
12048;SDS011;6085;49.452;8.502;2023-03-11T23:28:39;10.00;;;7.05;;
12048;SDS011;6085;49.452;8.502;2023-03-11T23:32:41;9.10;;;7.20;;
12048;SDS011;6085;49.452;8.502;2023-03-11T23:36:43;9.63;;;7.05;;
12048;SDS011;6085;49.452;8.502;2023-03-11T23:40:45;12.95;;;7.38;;
12048;SDS011;6085;49.452;8.502;2023-03-11T23:44:49;12.00;;;7.38;;
12048;SDS011;6085;49.452;8.502;2023-03-11T23:48:51;10.07;;;7.13;;
12048;SDS011;6085;49.452;8.502;2023-03-11T23:52:53;8.98;;;6.97;;
12048;SDS011;6085;49.452;8.502;2023-03-11T23:56:55;10.88;;;7.35;;
